Time;durP1;ratioP1;P1;durP2;ratioP2;P2;SDS_P1;SDS_P2;PMS_P1;PMS_P2;Temp;Humidity;BMP_temperature;BMP_pressure;BME280_temperature;BME280_humidity;BME280_pressure;Samples;Min_cycle;Max_cycle;Signal;HPM_P1;HPM_P2
2023/01/20 00:00:47;;;;;;;0.93;0.52;;;18.30;42.50;;;;;;5045779;28;20045;-45
2023/01/20 00:03:14;;;;;;;0.77;0.70;;;18.30;42.60;;;;;;5045750;28;20060;-47
2023/01/20 00:05:50;;;;;;;3.00;0.50;;;18.30;42.60;;;;;;5034833;28;20041;-46
2023/01/20 00:08:17;;;;;;;0.60;0.30;;;18.30;42.60;;;;;;5040559;28;20091;-49
2023/01/20 00:10:44;;;;;;;1.10;0.55;;;18.30;42.60;;;;;;5045465;28;20071;-45
2023/01/20 00:13:12;;;;;;;0.45;0.45;;;18.20;42.50;;;;;;5045968;28;20057;-47
2023/01/20 00:15:40;;;;;;;0.50;0.50;;;18.20;42.50;;;;;;5043955;28;20126;-46
2023/01/20 00:18:07;;;;;;;0.70;0.70;;;18.20;42.50;;;;;;5044319;28;20049;-46
2023/01/20 00:20:34;;;;;;;1.70;0.40;;;18.20;42.50;;;;;;5046252;28;20048;-46
2023/01/20 00:23:01;;;;;;;0.40;0.30;;;18.20;42.50;;;;;;5047535;28;20094;-44
2023/01/20 00:25:28;;;;;;;0.20;0.20;;;18.20;42.40;;;;;;5049743;28;20116;-46
2023/01/20 00:27:55;;;;;;;1.17;0.45;;;18.20;42.40;;;;;;5039456;28;20426;-46
2023/01/20 00:30:22;;;;;;;0.57;0.22;;;18.20;42.40;;;;;;5028144;28;20073;-45
2023/01/20 00:32:51;;;;;;;0.70;0.57;;;18.20;42.40;;;;;;5043098;28;20049;-48
2023/01/20 00:35:18;;;;;;;0.28;0.20;;;18.20;42.40;;;;;;5049484;28;20048;-47
2023/01/20 00:37:45;;;;;;;0.55;0.52;;;18.20;43.00;;;;;;5048817;28;20118;-48
2023/01/20 00:40:12;;;;;;;1.65;0.70;;;18.20;42.40;;;;;;5049344;28;20033;-45
2023/01/20 00:42:39;;;;;;;0.70;0.63;;;18.10;42.30;;;;;;5049107;28;20124;-45
2023/01/20 00:45:07;;;;;;;0.50;0.50;;;18.10;42.30;;;;;;5049043;28;20063;-47
2023/01/20 00:47:34;;;;;;;0.20;0.20;;;18.10;42.40;;;;;;5048960;28;20194;-46
2023/01/20 00:50:03;;;;;;;1.58;0.30;;;18.10;42.40;;;;;;5049235;28;20131;-46
2023/01/20 00:52:30;;;;;;;0.55;0.55;;;18.10;42.40;;;;;;5048332;28;20565;-47
2023/01/20 00:54:57;;;;;;;0.50;0.20;;;18.10;42.40;;;;;;5048591;28;20053;-48
2023/01/20 00:57:24;;;;;;;0.50;0.40;;;18.10;42.40;;;;;;5028965;28;20057;-48
2023/01/20 00:59:51;;;;;;;0.80;0.75;;;18.10;42.40;;;;;;5044899;28;20072;-46
2023/01/20 01:02:18;;;;;;;0.45;0.45;;;18.10;42.30;;;;;;5047004;28;20037;-49
2023/01/20 01:04:49;;;;;;;0.85;0.60;;;18.10;42.40;;;;;;5048173;28;20049;-51
2023/01/20 01:07:18;;;;;;;1.00;0.20;;;18.10;42.40;;;;;;5048522;28;20387;-47
2023/01/20 01:09:45;;;;;;;2.17;0.73;;;18.10;42.40;;;;;;5048910;28;20091;-50
2023/01/20 01:12:12;;;;;;;0.95;0.25;;;18.10;42.50;;;;;;5048359;28;20037;-46
2023/01/20 01:14:40;;;;;;;1.23;0.30;;;18.10;42.40;;;;;;5049045;28;20045;-48
2023/01/20 01:17:07;;;;;;;1.85;0.40;;;18.00;42.30;;;;;;5048304;28;20140;-44
2023/01/20 01:19:34;;;;;;;0.63;0.40;;;18.00;42.30;;;;;;5045608;28;20496;-46
2023/01/20 01:22:01;;;;;;;0.80;0.60;;;18.00;42.30;;;;;;5047977;28;20041;-48
2023/01/20 01:24:29;;;;;;;0.98;0.52;;;18.00;42.30;;;;;;5048414;28;20044;-46
2023/01/20 01:26:56;;;;;;;0.93;0.93;;;18.00;42.30;;;;;;5048525;28;20069;-47
2023/01/20 01:29:24;;;;;;;1.17;0.88;;;18.00;42.20;;;;;;5031817;28;20049;-44
2023/01/20 01:31:51;;;;;;;1.23;1.23;;;18.00;42.20;;;;;;5028441;28;20100;-46
2023/01/20 01:34:18;;;;;;;1.73;0.77;;;18.00;42.10;;;;;;5042137;28;20043;-46
2023/01/20 01:36:45;;;;;;;0.70;0.68;;;18.00;42.10;;;;;;5048888;28;20132;-47
2023/01/20 01:39:12;;;;;;;3.00;0.68;;;18.00;42.20;;;;;;5048562;28;20041;-45
2023/01/20 01:41:55;;;;;;;0.88;0.52;;;18.00;42.20;;;;;;4986230;28;20137;-50
2023/01/20 01:44:25;;;;;;;1.05;0.95;;;17.90;42.10;;;;;;4986540;28;20117;-48
2023/01/20 01:46:52;;;;;;;2.40;1.10;;;17.90;42.10;;;;;;4986304;28;20042;-48
2023/01/20 01:49:25;;;;;;;1.67;0.93;;;17.90;42.10;;;;;;4985898;28;20085;-47
2023/01/20 01:51:58;;;;;;;0.88;0.65;;;17.90;42.20;;;;;;4986088;28;20693;-51
2023/01/20 01:54:30;;;;;;;3.53;1.95;;;17.90;42.20;;;;;;4985610;28;20771;-45
2023/01/20 01:56:59;;;;;;;2.70;0.98;;;17.90;42.20;;;;;;4965930;28;20141;-46
2023/01/20 01:59:26;;;;;;;1.42;0.80;;;17.90;42.20;;;;;;4986081;28;20043;-47
2023/01/20 02:01:54;;;;;;;2.85;0.82;;;17.90;42.20;;;;;;4985850;28;20056;-45
2023/01/20 02:04:23;;;;;;;1.35;0.93;;;17.90;42.10;;;;;;4985235;28;20219;-45
2023/01/20 02:06:53;;;;;;;0.63;0.63;;;17.90;42.10;;;;;;4985846;28;20078;-49
2023/01/20 02:09:21;;;;;;;2.15;0.70;;;17.90;42.10;;;;;;4985667;28;20042;-44
2023/01/20 02:11:51;;;;;;;4.15;1.30;;;17.90;42.10;;;;;;4985355;28;20129;-46
2023/01/20 02:14:25;;;;;;;0.77;0.77;;;17.90;42.10;;;;;;4985001;28;20058;-46
2023/01/20 02:17:00;;;;;;;1.90;0.52;;;17.90;42.10;;;;;;4985682;28;20066;-49
2023/01/20 02:19:54;;;;;;;2.45;1.13;;;17.90;42.20;;;;;;5020859;28;20555;-45
2023/01/20 02:22:30;;;;;;;2.67;0.88;;;17.90;42.20;;;;;;5047332;28;20064;-45
2023/01/20 02:25:27;;;;;;;0.70;0.70;;;17.80;42.10;;;;;;5046958;28;20164;-44
2023/01/20 02:28:26;;;;;;;3.08;0.57;;;17.80;42.20;;;;;;5045896;28;20615;-46
2023/01/20 02:31:12;;;;;;;0.82;0.70;;;17.80;42.20;;;;;;5046782;28;20183;-46
2023/01/20 02:33:46;;;;;;;1.38;0.90;;;17.80;42.30;;;;;;5045133;28;20045;-49
2023/01/20 02:36:19;;;;;;;1.70;0.65;;;17.70;42.20;;;;;;5046933;28;20156;-46
2023/01/20 02:38:56;;;;;;;1.08;0.80;;;17.70;42.20;;;;;;5046850;28;20044;-49
2023/01/20 02:41:32;;;;;;;2.55;0.75;;;17.80;42.30;;;;;;5045667;28;20049;-47
2023/01/20 02:44:04;;;;;;;2.67;0.70;;;17.70;42.20;;;;;;5046187;28;20367;-51
2023/01/20 02:46:35;;;;;;;1.85;1.23;;;17.70;42.20;;;;;;5046768;28;20116;-46
2023/01/20 02:49:12;;;;;;;0.65;0.57;;;17.70;42.20;;;;;;5046979;28;20045;-47
2023/01/20 02:51:46;;;;;;;1.75;0.80;;;17.70;42.20;;;;;;5046955;28;20057;-45
2023/01/20 02:54:16;;;;;;;0.80;0.60;;;17.70;42.20;;;;;;5038315;28;20037;-47
2023/01/20 02:56:44;;;;;;;0.82;0.82;;;17.70;42.20;;;;;;5046815;28;20076;-46
2023/01/20 02:59:14;;;;;;;3.20;0.68;;;17.70;42.20;;;;;;5046641;28;20124;-48
2023/01/20 03:01:46;;;;;;;2.53;0.57;;;17.70;42.30;;;;;;5045247;28;20045;-47
2023/01/20 03:04:18;;;;;;;2.13;0.77;;;17.70;42.30;;;;;;5044926;28;20084;-46
2023/01/20 03:06:51;;;;;;;1.13;0.88;;;17.70;42.90;;;;;;5044944;28;20128;-45
2023/01/20 03:09:25;;;;;;;1.33;0.57;;;17.70;42.90;;;;;;5044879;28;20454;-46
2023/01/20 03:11:57;;;;;;;3.03;0.32;;;17.70;42.20;;;;;;5044604;28;20372;-45
2023/01/20 03:14:24;;;;;;;1.17;0.82;;;17.70;42.20;;;;;;5044953;28;20779;-44
2023/01/20 03:16:51;;;;;;;1.75;0.65;;;17.70;42.20;;;;;;5045755;28;20132;-45
2023/01/20 03:19:20;;;;;;;0.93;0.70;;;17.70;42.20;;;;;;5046980;28;20144;-45
2023/01/20 03:21:48;;;;;;;1.50;0.80;;;17.70;42.20;;;;;;5045024;28;20045;-46
2023/01/20 03:24:15;;;;;;;0.73;0.60;;;17.70;42.20;;;;;;5045976;28;20107;-47
2023/01/20 03:26:42;;;;;;;0.60;0.60;;;17.70;42.20;;;;;;5046546;28;20128;-45
2023/01/20 03:29:11;;;;;;;1.52;0.73;;;17.70;42.20;;;;;;5046028;28;20116;-45
2023/01/20 03:31:41;;;;;;;1.02;0.68;;;17.70;42.20;;;;;;5045999;28;20048;-47
2023/01/20 03:34:11;;;;;;;0.85;0.50;;;17.70;42.20;;;;;;5044787;28;20071;-45
2023/01/20 03:36:42;;;;;;;1.33;0.40;;;17.70;42.20;;;;;;5030635;28;20049;-47
2023/01/20 03:39:10;;;;;;;1.02;0.90;;;17.70;42.20;;;;;;5026431;28;20548;-46
2023/01/20 03:41:46;;;;;;;0.50;0.50;;;17.60;42.10;;;;;;5025827;28;20056;-46
2023/01/20 03:44:22;;;;;;;1.00;0.60;;;17.70;42.20;;;;;;5036842;28;20069;-46
2023/01/20 03:46:54;;;;;;;1.80;0.57;;;17.70;42.30;;;;;;5045822;28;20037;-48
2023/01/20 03:49:29;;;;;;;1.63;1.05;;;17.70;42.20;;;;;;5045953;28;21142;-46
2023/01/20 03:52:03;;;;;;;1.00;0.82;;;17.60;42.90;;;;;;5045826;28;20077;-46
2023/01/20 03:54:37;;;;;;;0.80;0.70;;;17.70;42.30;;;;;;5038596;28;20119;-45
2023/01/20 03:57:11;;;;;;;2.10;0.47;;;17.60;42.20;;;;;;5025438;28;20033;-47
2023/01/20 03:59:42;;;;;;;1.02;0.43;;;17.60;42.20;;;;;;5025618;28;20049;-45
2023/01/20 04:02:11;;;;;;;0.95;0.93;;;17.70;42.30;;;;;;5026067;28;20140;-46
2023/01/20 04:04:41;;;;;;;2.50;0.95;;;17.60;42.20;;;;;;5045030;28;20049;-46
2023/01/20 04:07:13;;;;;;;0.77;0.28;;;17.60;42.30;;;;;;5045789;28;20049;-50
2023/01/20 04:09:45;;;;;;;3.20;0.50;;;17.60;42.20;;;;;;5045553;28;20064;-46
2023/01/20 04:12:12;;;;;;;3.03;0.40;;;17.70;42.30;;;;;;5045454;28;20071;-49
2023/01/20 04:14:39;;;;;;;0.60;0.55;;;17.60;42.20;;;;;;5045208;28;20044;-46
2023/01/20 04:17:06;;;;;;;0.52;0.50;;;17.60;42.10;;;;;;5045704;28;20120;-49
2023/01/20 04:19:34;;;;;;;1.05;0.45;;;17.60;42.10;;;;;;5045106;28;20452;-47
2023/01/20 04:22:06;;;;;;;1.35;0.43;;;17.60;42.00;;;;;;5042457;28;20045;-45
2023/01/20 04:24:40;;;;;;;1.95;0.75;;;17.70;42.10;;;;;;5045191;28;20068;-47
2023/01/20 04:27:07;;;;;;;1.67;0.50;;;17.70;42.10;;;;;;5034478;28;20065;-50
2023/01/20 04:29:34;;;;;;;4.82;0.50;;;17.60;42.10;;;;;;5025643;28;20056;-46
2023/01/20 04:32:03;;;;;;;0.75;0.30;;;17.70;42.20;;;;;;5035797;28;20119;-47
2023/01/20 04:34:30;;;;;;;0.45;0.28;;;17.70;42.10;;;;;;5045474;28;20244;-46
2023/01/20 04:36:57;;;;;;;1.13;0.30;;;17.70;42.00;;;;;;5045792;28;20126;-45
2023/01/20 04:39:24;;;;;;;3.30;0.90;;;17.70;42.00;;;;;;5045590;28;20140;-47
2023/01/20 04:41:52;;;;;;;0.52;0.50;;;17.60;41.80;;;;;;5045450;28;20128;-50
2023/01/20 04:44:19;;;;;;;1.48;0.38;;;17.70;41.90;;;;;;5037656;28;20117;-48
2023/01/20 04:46:46;;;;;;;2.50;0.32;;;17.60;41.90;;;;;;5025798;28;20129;-47
2023/01/20 04:49:14;;;;;;;0.90;0.35;;;17.70;41.90;;;;;;5025800;28;20049;-48
2023/01/20 04:51:41;;;;;;;2.78;0.80;;;17.60;41.80;;;;;;5025838;28;20757;-49
2023/01/20 04:54:08;;;;;;;2.10;1.27;;;17.60;41.80;;;;;;5039607;28;20037;-46
2023/01/20 04:56:35;;;;;;;2.30;0.65;;;17.60;41.80;;;;;;5041783;28;20414;-47
2023/01/20 04:59:03;;;;;;;0.73;0.40;;;17.60;41.70;;;;;;5044798;28;20041;-50
2023/01/20 05:01:31;;;;;;;1.25;0.77;;;17.60;41.80;;;;;;5045511;28;20055;-48
2023/01/20 05:03:58;;;;;;;2.58;0.63;;;17.60;41.70;;;;;;5041111;28;20144;-47
2023/01/20 05:06:25;;;;;;;1.50;0.65;;;17.60;41.70;;;;;;5045468;28;20052;-47
2023/01/20 05:08:52;;;;;;;0.88;0.52;;;17.60;41.60;;;;;;5048778;28;20635;-45
2023/01/20 05:11:19;;;;;;;0.98;0.73;;;17.60;41.60;;;;;;5028906;28;20060;-46
2023/01/20 05:13:46;;;;;;;1.63;0.65;;;17.60;42.20;;;;;;5042359;28;20111;-46
2023/01/20 05:16:18;;;;;;;1.85;0.60;;;17.60;41.60;;;;;;5048802;28;20056;-45
2023/01/20 05:18:45;;;;;;;0.55;0.30;;;17.70;41.70;;;;;;5047053;28;20560;-47
2023/01/20 05:21:12;;;;;;;1.17;0.45;;;17.70;41.70;;;;;;5046956;28;20037;-48
2023/01/20 05:23:39;;;;;;;1.42;0.70;;;17.70;41.70;;;;;;5046583;28;20060;-46
2023/01/20 05:26:06;;;;;;;0.98;0.32;;;17.60;41.60;;;;;;5047156;28;20059;-44
2023/01/20 05:28:33;;;;;;;4.07;1.02;;;17.60;41.50;;;;;;5047379;28;20120;-45
2023/01/20 05:31:00;;;;;;;2.90;1.25;;;17.60;41.50;;;;;;5046719;28;20040;-50
2023/01/20 05:33:28;;;;;;;3.13;0.80;;;17.70;41.50;;;;;;5035566;28;20049;-52
2023/01/20 05:35:55;;;;;;;2.38;0.60;;;17.70;41.70;;;;;;5047257;28;20045;-47
2023/01/20 05:38:22;;;;;;;2.03;0.82;;;17.60;41.60;;;;;;5048506;28;20045;-48
2023/01/20 05:40:49;;;;;;;1.15;0.98;;;17.70;41.60;;;;;;5046705;28;20048;-48
2023/01/20 05:43:16;;;;;;;1.88;1.00;;;17.70;41.50;;;;;;5048214;28;20588;-48
2023/01/20 05:45:45;;;;;;;2.78;1.17;;;17.70;41.50;;;;;;5048088;28;20053;-49
2023/01/20 05:48:12;;;;;;;2.60;0.88;;;17.70;41.50;;;;;;5047876;28;20585;-49
2023/01/20 05:50:41;;;;;;;0.98;0.65;;;17.70;41.50;;;;;;5046364;28;20051;-49
2023/01/20 05:53:08;;;;;;;2.10;1.30;;;17.70;41.50;;;;;;5048218;28;20045;-47
2023/01/20 05:55:35;;;;;;;2.88;1.50;;;17.70;41.60;;;;;;5030652;28;20049;-50
2023/01/20 05:58:02;;;;;;;4.13;1.23;;;17.70;41.50;;;;;;5028966;28;20057;-51
2023/01/20 06:00:29;;;;;;;6.43;1.38;;;17.70;41.50;;;;;;5029913;28;20454;-47
2023/01/20 06:02:56;;;;;;;5.47;1.25;;;17.70;41.50;;;;;;5031051;28;20045;-46
2023/01/20 06:05:24;;;;;;;7.05;1.17;;;17.70;41.40;;;;;;5063160;28;20045;-49
2023/01/20 06:07:54;;;;;;;3.60;1.42;;;17.70;41.30;;;;;;5044532;28;20048;-45
2023/01/20 06:10:24;;;;;;;1.55;1.00;;;17.70;41.20;;;;;;5047644;28;20041;-46
2023/01/20 06:12:52;;;;;;;2.00;1.60;;;17.70;41.30;;;;;;5048048;28;20044;-50
2023/01/20 06:15:19;;;;;;;4.20;1.10;;;17.70;41.30;;;;;;5048281;28;20044;-47
2023/01/20 06:17:46;;;;;;;1.80;1.20;;;17.70;41.30;;;;;;5047106;28;20083;-47
2023/01/20 06:20:13;;;;;;;3.60;0.85;;;17.70;41.30;;;;;;5047466;28;20127;-48
2023/01/20 06:22:40;;;;;;;4.95;2.28;;;17.70;41.30;;;;;;5047735;28;20472;-46
2023/01/20 06:25:09;;;;;;;1.23;0.88;;;17.70;41.40;;;;;;5047178;28;20044;-48
2023/01/20 06:27:37;;;;;;;3.15;1.30;;;17.70;41.40;;;;;;5035606;28;20095;-46
2023/01/20 06:30:05;;;;;;;4.28;1.48;;;17.70;41.30;;;;;;5027851;28;20103;-48
2023/01/20 06:32:32;;;;;;;2.72;1.30;;;17.70;41.30;;;;;;5030948;28;20037;-47
2023/01/20 06:34:59;;;;;;;6.15;1.67;;;17.70;41.30;;;;;;5047226;28;20053;-47
2023/01/20 06:37:26;;;;;;;1.90;0.95;;;17.70;41.30;;;;;;5047166;28;20037;-48
2023/01/20 06:39:53;;;;;;;3.75;2.00;;;17.70;41.40;;;;;;5047140;28;20045;-47
2023/01/20 06:42:21;;;;;;;2.53;2.08;;;17.70;41.40;;;;;;5045347;28;20122;-47
2023/01/20 06:44:48;;;;;;;2.05;1.67;;;17.70;41.40;;;;;;5027298;28;20044;-48
2023/01/20 06:47:15;;;;;;;3.78;1.58;;;17.70;41.40;;;;;;5025698;28;20087;-47
2023/01/20 06:49:42;;;;;;;5.43;1.75;;;17.70;41.40;;;;;;5025902;28;20604;-46
2023/01/20 06:52:09;;;;;;;3.28;1.27;;;17.70;41.40;;;;;;5027056;28;20064;-47
2023/01/20 06:54:36;;;;;;;4.00;1.20;;;17.70;41.50;;;;;;5034642;28;20104;-49
2023/01/20 06:57:04;;;;;;;3.75;1.10;;;17.70;41.60;;;;;;5041685;28;20409;-46
2023/01/20 06:59:32;;;;;;;1.65;0.95;;;17.70;41.70;;;;;;5046852;28;20060;-47
2023/01/20 07:01:59;;;;;;;2.00;1.20;;;17.70;41.80;;;;;;5045178;28;20425;-48
2023/01/20 07:04:26;;;;;;;2.38;1.05;;;17.70;41.80;;;;;;5045104;28;20044;-46
2023/01/20 07:06:53;;;;;;;2.60;1.67;;;17.70;41.80;;;;;;5046813;28;20128;-47
2023/01/20 07:09:21;;;;;;;2.15;1.23;;;17.70;41.90;;;;;;5046279;28;20049;-46
2023/01/20 07:11:48;;;;;;;3.10;1.23;;;17.70;41.90;;;;;;5046176;28;20037;-48
2023/01/20 07:14:15;;;;;;;1.42;1.30;;;17.70;42.50;;;;;;5046704;28;20188;-48
2023/01/20 07:16:43;;;;;;;1.27;0.80;;;17.70;41.90;;;;;;5044619;28;20037;-46
2023/01/20 07:19:11;;;;;;;2.47;0.77;;;17.70;41.80;;;;;;5046685;28;20417;-46
2023/01/20 07:21:38;;;;;;;3.85;1.02;;;17.70;41.80;;;;;;5046150;28;20219;-46
2023/01/20 07:24:06;;;;;;;3.95;1.65;;;17.70;41.80;;;;;;5046186;28;20148;-47
2023/01/20 07:26:33;;;;;;;1.67;1.30;;;17.70;41.80;;;;;;5045974;28;20037;-45
2023/01/20 07:29:00;;;;;;;3.95;1.73;;;17.70;41.70;;;;;;5045105;28;20043;-47
2023/01/20 07:31:30;;;;;;;1.17;0.82;;;17.70;41.70;;;;;;5045580;28;20124;-48
2023/01/20 07:33:58;;;;;;;1.75;0.85;;;17.70;41.70;;;;;;5039835;28;20045;-48
2023/01/20 07:36:26;;;;;;;1.67;1.15;;;17.70;41.70;;;;;;5045445;28;20421;-46
2023/01/20 07:38:53;;;;;;;1.50;1.20;;;17.70;41.70;;;;;;5045993;28;20063;-47
2023/01/20 07:41:21;;;;;;;1.52;1.02;;;17.70;41.70;;;;;;5045636;28;20049;-46
2023/01/20 07:43:50;;;;;;;2.15;0.90;;;17.70;41.70;;;;;;5044567;28;20246;-49
2023/01/20 07:46:18;;;;;;;1.05;0.95;;;17.70;41.70;;;;;;5044739;28;20132;-46
2023/01/20 07:48:45;;;;;;;2.35;0.95;;;17.70;41.70;;;;;;5026116;28;20125;-49
2023/01/20 07:51:15;;;;;;;1.13;0.70;;;17.70;42.30;;;;;;5025973;28;20100;-48
2023/01/20 07:53:45;;;;;;;2.58;1.10;;;17.70;41.60;;;;;;5030718;28;20521;-49
2023/01/20 07:56:14;;;;;;;3.03;0.75;;;17.70;41.60;;;;;;5045734;28;20214;-51
2023/01/20 07:58:41;;;;;;;1.42;0.88;;;17.80;41.80;;;;;;5046205;28;20461;-47
2023/01/20 08:01:10;;;;;;;1.48;0.80;;;17.70;41.60;;;;;;5044035;28;20045;-50
2023/01/20 08:03:37;;;;;;;3.25;0.75;;;17.70;41.60;;;;;;5044517;28;20143;-48
2023/01/20 08:06:05;;;;;;;3.90;1.13;;;17.80;41.80;;;;;;5038955;28;20049;-57
2023/01/20 08:08:35;;;;;;;5.82;1.13;;;17.80;42.30;;;;;;5045781;28;20052;-49
2023/01/20 08:11:03;;;;;;;0.93;0.60;;;17.80;43.00;;;;;;5035502;28;20056;-52
2023/01/20 08:13:31;;;;;;;1.65;1.35;;;17.80;43.50;;;;;;5025134;28;20418;-54
2023/01/20 08:16:00;;;;;;;5.60;1.67;;;17.80;43.70;;;;;;5043913;28;20521;-51
2023/01/20 08:18:27;;;;;;;2.13;1.30;;;17.90;43.90;;;;;;5031210;28;20045;-53
2023/01/20 08:20:54;;;;;;;4.15;1.00;;;17.90;43.90;;;;;;5035703;28;20037;-49
2023/01/20 08:23:21;;;;;;;7.35;1.25;;;17.90;44.00;;;;;;5038235;28;20053;-52
2023/01/20 08:25:50;;;;;;;1.80;0.93;;;18.00;44.00;;;;;;5028885;28;20050;-49
2023/01/20 08:28:17;;;;;;;4.38;1.17;;;18.00;44.00;;;;;;5045428;28;20076;-51
2023/01/20 08:30:44;;;;;;;4.88;0.88;;;18.00;43.90;;;;;;5044274;28;20037;-49
2023/01/20 08:33:11;;;;;;;4.05;1.00;;;18.10;43.90;;;;;;5037340;28;20118;-54
2023/01/20 08:35:38;;;;;;;0.95;0.55;;;18.10;44.00;;;;;;5030562;28;20041;-57
2023/01/20 08:38:06;;;;;;;3.92;0.65;;;18.20;44.20;;;;;;5044347;28;20033;-53
2023/01/20 08:40:33;;;;;;;1.08;0.63;;;18.40;44.30;;;;;;5045218;28;20119;-50
2023/01/20 08:43:02;;;;;;;4.03;0.55;;;18.60;44.20;;;;;;5038010;28;20053;-54
2023/01/20 08:45:29;;;;;;;2.13;0.20;;;18.80;44.10;;;;;;5029346;28;20064;-48
2023/01/20 08:47:56;;;;;;;1.33;0.73;;;18.90;43.80;;;;;;5045649;28;20926;-48
2023/01/20 08:50:23;;;;;;;1.45;0.50;;;19.10;43.60;;;;;;5033991;28;20037;-46
2023/01/20 08:52:50;;;;;;;0.70;0.40;;;19.20;43.30;;;;;;5048574;28;20155;-50
2023/01/20 08:55:17;;;;;;;0.63;0.57;;;19.40;43.10;;;;;;5044917;28;20056;-53
2023/01/20 08:57:45;;;;;;;2.05;0.68;;;19.60;42.80;;;;;;5032963;28;20045;-54
2023/01/20 09:00:15;;;;;;;1.13;1.02;;;19.70;42.60;;;;;;5032599;28;20087;-55
2023/01/20 09:02:42;;;;;;;1.10;0.65;;;19.80;42.30;;;;;;5042282;28;20056;-50
2023/01/20 09:05:10;;;;;;;1.38;0.30;;;20.00;42.20;;;;;;5048082;28;20037;-49
2023/01/20 09:07:37;;;;;;;1.35;0.25;;;20.10;42.00;;;;;;5038329;28;20049;-46
2023/01/20 09:10:05;;;;;;;2.15;0.77;;;20.20;41.80;;;;;;5037138;28;20127;-49
2023/01/20 09:12:32;;;;;;;2.53;0.13;;;20.30;41.70;;;;;;5048486;28;20060;-47
2023/01/20 09:15:00;;;;;;;1.40;0.68;;;20.40;41.60;;;;;;5042555;28;20131;-50
2023/01/20 09:17:28;;;;;;;3.60;0.50;;;20.60;41.50;;;;;;5036990;28;20045;-51
2023/01/20 09:19:55;;;;;;;2.03;0.52;;;20.70;41.40;;;;;;5031648;28;20045;-46
2023/01/20 09:22:22;;;;;;;1.27;0.40;;;20.80;41.30;;;;;;5048572;28;20060;-49
2023/01/20 09:24:49;;;;;;;0.50;0.20;;;20.90;41.20;;;;;;5046942;28;20040;-52
2023/01/20 09:27:16;;;;;;;1.35;0.25;;;21.00;41.10;;;;;;5035750;28;20510;-47
2023/01/20 09:29:43;;;;;;;0.50;0.50;;;21.10;41.00;;;;;;5028530;28;20364;-52
2023/01/20 09:32:12;;;;;;;3.83;0.68;;;21.20;40.90;;;;;;5032045;28;20108;-53
2023/01/20 09:34:41;;;;;;;2.28;0.20;;;21.20;40.90;;;;;;5048122;28;20041;-53
2023/01/20 09:45:43;;;;;;;0.73;0.70;;;21.60;40.50;;;;;;5042922;28;20159;-51
2023/01/20 09:54:03;;;;;;;1.25;0.30;;;21.80;40.00;;;;;;5044218;28;20488;-55
2023/01/20 09:56:36;;;;;;;0.77;0.28;;;21.80;39.50;;;;;;5048044;28;20803;-57
2023/01/20 09:59:08;;;;;;;1.08;0.30;;;21.80;39.30;;;;;;5037624;28;20164;-57
2023/01/20 10:01:39;;;;;;;0.60;0.20;;;21.80;39.20;;;;;;5042510;28;20061;-50
2023/01/20 10:04:13;;;;;;;1.20;0.40;;;21.70;39.10;;;;;;5046830;28;20049;-44
2023/01/20 10:06:45;;;;;;;1.42;0.20;;;21.60;39.10;;;;;;5044429;28;20139;-48
2023/01/20 10:09:22;;;;;;;1.30;0.35;;;21.60;39.20;;;;;;5048195;28;20136;-47
2023/01/20 10:11:51;;;;;;;1.65;0.20;;;21.50;39.20;;;;;;5037909;28;20168;-46
2023/01/20 10:14:24;;;;;;;2.58;0.40;;;21.40;39.20;;;;;;5043818;28;20524;-51
2023/01/20 10:16:57;;;;;;;0.68;0.32;;;21.40;39.20;;;;;;5047489;28;20040;-49
2023/01/20 10:19:29;;;;;;;1.00;0.55;;;21.30;39.20;;;;;;5034199;28;20115;-49
2023/01/20 10:22:06;;;;;;;1.13;0.28;;;21.30;39.20;;;;;;5044079;28;20103;-49
2023/01/20 10:24:39;;;;;;;0.70;0.38;;;21.30;39.20;;;;;;5033228;28;20048;-48
2023/01/20 10:27:06;;;;;;;1.38;0.25;;;21.20;39.30;;;;;;5035566;28;20140;-50
2023/01/20 10:29:37;;;;;;;1.00;0.20;;;21.20;39.20;;;;;;5027130;28;20041;-51
2023/01/20 10:32:12;;;;;;;1.23;0.20;;;21.20;39.20;;;;;;5028469;28;20041;-54
2023/01/20 10:34:45;;;;;;;3.35;0.38;;;21.10;39.10;;;;;;5043109;28;20607;-47
2023/01/20 10:37:15;;;;;;;0.65;0.40;;;21.10;39.10;;;;;;5033324;28;20049;-54
2023/01/20 10:39:48;;;;;;;2.65;0.43;;;21.10;39.10;;;;;;5036303;28;20045;-47
2023/01/20 10:42:16;;;;;;;0.70;0.43;;;21.00;39.10;;;;;;5030240;28;20051;-50
2023/01/20 10:44:44;;;;;;;0.52;0.30;;;21.00;39.00;;;;;;5037423;28;20034;-49
2023/01/20 10:47:38;;;;;;;1.27;0.35;;;21.00;38.90;;;;;;5036670;28;20128;-47
2023/01/20 10:50:18;;;;;;;0.75;0.40;;;21.00;38.80;;;;;;5042643;28;20052;-54
2023/01/20 10:53:15;;;;;;;1.80;0.82;;;20.90;38.90;;;;;;5025460;28;20207;-55
2023/01/20 10:55:58;;;;;;;0.52;0.20;;;20.90;38.90;;;;;;5041514;28;20862;-51
2023/01/20 10:58:29;;;;;;;0.40;0.20;;;20.80;38.90;;;;;;5031249;28;20128;-54
2023/01/20 11:00:59;;;;;;;0.52;0.30;;;20.80;39.00;;;;;;5036233;28;20052;-53
2023/01/20 11:03:27;;;;;;;0.40;0.40;;;20.80;39.00;;;;;;5039806;28;20581;-55
2023/01/20 11:05:54;;;;;;;4.28;0.40;;;20.80;39.00;;;;;;5044287;28;20036;-57
2023/01/20 11:08:25;;;;;;;3.30;0.40;;;20.70;38.90;;;;;;5043437;28;20406;-57
2023/01/20 11:10:56;;;;;;;3.47;0.30;;;20.70;38.90;;;;;;5037385;28;20057;-59
2023/01/20 11:13:23;;;;;;;0.30;0.20;;;20.70;38.90;;;;;;5032435;28;20124;-53
2023/01/20 11:15:53;;;;;;;0.95;0.40;;;20.70;39.00;;;;;;5041921;28;20051;-55
2023/01/20 11:18:27;;;;;;;1.45;0.43;;;20.70;39.10;;;;;;5027719;28;20042;-52
2023/01/20 11:20:59;;;;;;;1.23;0.43;;;20.70;39.20;;;;;;5035632;28;20133;-48
2023/01/20 11:23:35;;;;;;;0.30;0.20;;;20.70;39.20;;;;;;5039820;28;20560;-48
2023/01/20 11:26:08;;;;;;;;;;;20.70;39.20;;;;;;5044118;28;20052;-47
2023/01/20 11:28:48;;;;;;;0.85;0.22;;;20.60;39.20;;;;;;5025422;28;19929;-47
2023/01/20 11:31:15;;;;;;;1.60;1.08;;;20.60;39.30;;;;;;5026929;28;20069;-55
2023/01/20 11:33:56;;;;;;;0.73;0.30;;;20.60;39.20;;;;;;5041760;28;20041;-54
2023/01/20 11:36:24;;;;;;;0.68;0.20;;;20.60;39.00;;;;;;5039231;28;20678;-47
2023/01/20 11:38:54;;;;;;;4.50;0.40;;;20.60;38.80;;;;;;5040043;28;20066;-47
2023/01/20 11:41:23;;;;;;;3.30;0.40;;;20.60;38.70;;;;;;5033254;28;20136;-46
2023/01/20 11:43:51;;;;;;;0.20;0.20;;;20.60;38.60;;;;;;5041758;28;20576;-46
2023/01/20 11:46:25;;;;;;;1.38;0.20;;;20.70;38.30;;;;;;5029930;28;20071;-46
2023/01/20 11:49:13;;;;;;;4.50;0.40;;;20.70;38.20;;;;;;5040813;28;20041;-49
2023/01/20 11:51:52;;;;;;;4.53;0.60;;;20.60;38.00;;;;;;5037056;28;20512;-48
2023/01/20 11:54:23;;;;;;;1.77;0.65;;;20.60;38.00;;;;;;5031678;28;20598;-48
2023/01/20 11:56:55;;;;;;;2.13;0.30;;;20.50;37.90;;;;;;5077900;28;20059;-47
2023/01/20 11:59:26;;;;;;;3.03;0.20;;;20.50;38.00;;;;;;5059967;28;20460;-55
2023/01/20 12:02:00;;;;;;;5.57;0.38;;;20.50;37.80;;;;;;5054729;28;20029;-55
2023/01/20 12:04:52;;;;;;;4.97;0.88;;;20.50;38.00;;;;;;5055613;28;20513;-49
2023/01/20 12:07:23;;;;;;;2.28;0.60;;;20.40;38.20;;;;;;5058109;28;20045;-47
2023/01/20 12:09:54;;;;;;;1.25;0.30;;;20.40;38.40;;;;;;5051865;28;20043;-48
2023/01/20 12:12:28;;;;;;;3.80;0.30;;;20.30;38.50;;;;;;5048606;28;20080;-47
2023/01/20 12:15:01;;;;;;;4.60;0.13;;;20.30;38.50;;;;;;5055351;28;20041;-46
2023/01/20 12:17:44;;;;;;;3.03;0.30;;;20.30;38.60;;;;;;5058324;28;20448;-48
2023/01/20 12:20:18;;;;;;;2.28;0.40;;;20.30;38.70;;;;;;5061638;28;20053;-50
2023/01/20 12:22:57;;;;;;;1.20;0.20;;;20.30;38.80;;;;;;5053484;28;20056;-50
2023/01/20 12:25:29;;;;;;;1.98;0.57;;;20.30;38.80;;;;;;5065350;28;20742;-51
2023/01/20 12:28:02;;;;;;;1.85;0.32;;;20.30;38.80;;;;;;5057430;28;20060;-48
2023/01/20 12:30:42;;;;;;;1.67;0.32;;;20.30;38.80;;;;;;5050454;28;20159;-48
2023/01/20 12:33:20;;;;;;;1.60;0.43;;;20.30;38.50;;;;;;5062271;28;20044;-50
2023/01/20 12:36:16;;;;;;;0.32;0.20;;;20.30;38.50;;;;;;5056215;28;20043;-53
2023/01/20 12:38:56;;;;;;;0.90;0.23;;;20.30;38.60;;;;;;5049503;28;20048;-54
2023/01/20 12:41:39;;;;;;;0.57;0.38;;;20.30;38.30;;;;;;5051717;28;20279;-53
2023/01/20 12:44:17;;;;;;;0.82;0.25;;;20.30;38.10;;;;;;5064452;28;20417;-53
2023/01/20 12:46:50;;;;;;;2.72;0.40;;;20.30;38.20;;;;;;5057763;28;20138;-53
2023/01/20 12:49:34;;;;;;;1.58;0.20;;;20.40;38.40;;;;;;5048663;28;20044;-52
2023/01/20 12:52:22;;;;;;;2.65;0.45;;;20.50;38.40;;;;;;5063207;28;20064;-55
2023/01/20 12:55:15;;;;;;;1.40;0.30;;;20.60;38.30;;;;;;5049394;28;20049;-52
2023/01/20 12:58:02;;;;;;;5.70;0.68;;;20.60;38.30;;;;;;5044199;28;20393;-54
2023/01/20 13:00:42;;;;;;;1.27;0.20;;;20.70;38.40;;;;;;5054838;28;20049;-56
2023/01/20 13:03:46;;;;;;;6.00;0.57;;;20.70;38.30;;;;;;5057197;28;20037;-55
2023/01/20 13:06:38;;;;;;;1.15;0.10;;;20.90;38.30;;;;;;5055826;28;20091;-48
2023/01/20 13:09:20;;;;;;;4.47;0.32;;;20.90;37.80;;;;;;5064337;28;20073;-51
2023/01/20 13:12:00;;;;;;;1.35;0.20;;;20.90;37.80;;;;;;5058703;28;20037;-53
2023/01/20 13:14:39;;;;;;;1.75;0.13;;;21.00;37.80;;;;;;5051148;28;20152;-53
2023/01/20 13:17:17;;;;;;;0.20;0.10;;;21.10;37.80;;;;;;5052745;28;20410;-51
2023/01/20 13:19:47;;;;;;;1.75;0.38;;;21.20;37.70;;;;;;5044751;28;20037;-49